createdAt,value
2022-08-28T00:00:59.753Z,89.86
2022-08-28T00:03:26.836Z,89.81
2022-08-28T00:05:53.974Z,89.83
2022-08-28T00:08:21.150Z,89.74
2022-08-28T00:10:48.364Z,89.44
2022-08-28T00:13:18.989Z,89.58
2022-08-28T00:15:50.484Z,89.67
2022-08-28T00:18:18.268Z,89.73
2022-08-28T00:20:46.379Z,90.34
2022-08-28T00:23:14.709Z,89.87
2022-08-28T00:25:41.939Z,90.19
2022-08-28T00:28:11.054Z,90.73
2022-08-28T00:30:53.683Z,91.28
2022-08-28T00:33:27.705Z,91.35
2022-08-28T00:35:55.623Z,91.21
2022-08-28T00:38:25.683Z,92.11
2022-08-28T00:40:55.579Z,91.60
2022-08-28T00:43:44.491Z,90.76
2022-08-28T00:47:06.102Z,91.72
2022-08-28T00:49:47.917Z,91.13
2022-08-28T00:52:16.052Z,91.76
2022-08-28T00:54:50.506Z,92.16
2022-08-28T00:57:34.051Z,91.93
2022-08-28T01:00:01.646Z,91.63
2022-08-28T01:02:28.995Z,91.07
2022-08-28T01:04:56.242Z,91.66
2022-08-28T01:07:23.772Z,91.07
2022-08-28T01:09:54.685Z,89.74
2022-08-28T01:12:26.089Z,89.71
2022-08-28T01:14:59.782Z,89.35
2022-08-28T01:17:31.171Z,89.49
2022-08-28T01:20:05.366Z,89.13
2022-08-28T01:22:38.296Z,89.64
2022-08-28T01:25:13.269Z,90.32
2022-08-28T01:27:46.791Z,89.38
2022-08-28T01:30:17.876Z,88.38
2022-08-28T01:32:49.368Z,88.56
2022-08-28T01:35:21.641Z,87.94
2022-08-28T01:37:48.845Z,88.23
2022-08-28T01:40:22.958Z,88.42
2022-08-28T01:42:50.279Z,88.92
2022-08-28T01:45:20.519Z,88.68
2022-08-28T01:47:48.345Z,88.11
2022-08-28T01:50:20.756Z,87.71
2022-08-28T01:52:47.849Z,87.83
2022-08-28T01:55:15.129Z,87.26
2022-08-28T01:57:49.595Z,87.05
2022-08-28T02:00:17.908Z,87.19
2022-08-28T02:02:44.949Z,86.84
2022-08-28T02:05:12.208Z,87.02
2022-08-28T02:07:39.521Z,87.74
2022-08-28T02:10:08.060Z,87.65
2022-08-28T02:12:35.870Z,87.88
2022-08-28T02:18:53.133Z,86.83
2022-08-28T02:21:20.362Z,87.97
2022-08-28T02:23:47.539Z,86.67
2022-08-28T02:26:14.952Z,86.76
2022-08-28T02:28:42.656Z,86.04
2022-08-28T02:31:11.008Z,86.46
2022-08-28T02:33:40.859Z,86.92
2022-08-28T02:36:10.219Z,87.10
2022-08-28T02:38:38.442Z,87.40
2022-08-28T02:41:07.011Z,86.98
2022-08-28T02:43:34.756Z,87.03
2022-08-28T02:46:02.883Z,87.04
2022-08-28T02:48:31.651Z,87.16
2022-08-28T02:51:04.425Z,86.88
2022-08-28T02:53:32.269Z,86.90
2022-08-28T02:56:00.782Z,87.36
2022-08-28T02:58:27.878Z,87.03
2022-08-28T03:00:58.347Z,86.93
2022-08-28T03:03:27.562Z,86.25
2022-08-28T03:05:55.603Z,86.71
2022-08-28T03:08:27.336Z,87.06
2022-08-28T03:10:55.386Z,86.39
2022-08-28T03:13:27.155Z,86.14
2022-08-28T03:15:55.899Z,86.25
2022-08-28T03:18:25.581Z,86.61
2022-08-28T03:20:55.444Z,86.92
2022-08-28T03:23:28.732Z,87.03
2022-08-28T03:26:00.409Z,87.22
2022-08-28T03:28:31.600Z,87.28
2022-08-28T03:30:58.857Z,87.09
2022-08-28T03:33:27.261Z,87.77
2022-08-28T03:35:55.482Z,86.41
2022-08-28T03:38:22.963Z,86.84
2022-08-28T03:40:52.503Z,87.52
2022-08-28T03:43:22.353Z,87.02
2022-08-28T03:45:58.763Z,87.99
2022-08-28T03:48:28.469Z,88.11
2022-08-28T03:50:55.663Z,88.13
2022-08-28T03:53:24.736Z,88.28
2022-08-28T03:55:53.126Z,88.39
2022-08-28T03:58:20.422Z,88.48
2022-08-28T04:00:47.923Z,88.73
2022-08-28T04:03:15.246Z,88.70
2022-08-28T04:05:44.382Z,88.48
2022-08-28T04:08:16.151Z,88.26
2022-08-28T04:10:44.585Z,87.58
2022-08-28T04:13:13.185Z,87.21
2022-08-28T04:15:41.305Z,88.12
2022-08-28T04:18:09.709Z,88.11
2022-08-28T04:20:37.389Z,89.45
2022-08-28T04:23:09.298Z,88.76
2022-08-28T04:25:40.010Z,87.32
2022-08-28T04:28:07.036Z,87.67
2022-08-28T04:30:34.077Z,87.84
2022-08-28T04:33:01.129Z,87.38
2022-08-28T04:35:28.974Z,87.79
2022-08-28T04:37:58.865Z,88.36
2022-08-28T04:40:26.291Z,88.85
2022-08-28T04:42:53.363Z,88.12
2022-08-28T04:45:20.412Z,88.18
2022-08-28T04:47:47.463Z,88.01
2022-08-28T04:50:14.497Z,88.51
2022-08-28T04:52:43.167Z,88.87
2022-08-28T04:55:10.435Z,88.94
2022-08-28T04:57:37.442Z,89.44
2022-08-28T05:00:06.874Z,89.84
2022-08-28T05:02:34.002Z,90.16
2022-08-28T05:05:01.089Z,89.73
2022-08-28T05:07:28.406Z,88.85
2022-08-28T05:09:55.516Z,88.59
2022-08-28T05:12:22.606Z,89.81
2022-08-28T05:14:50.059Z,88.26
2022-08-28T05:17:17.178Z,88.26
2022-08-28T05:19:44.268Z,88.66
2022-08-28T05:22:11.362Z,88.83
2022-08-28T05:24:40.137Z,88.70
2022-08-28T05:27:08.601Z,87.44
2022-08-28T05:29:35.901Z,87.77
2022-08-28T05:32:03.543Z,86.85
2022-08-28T05:34:31.262Z,86.86
2022-08-28T05:36:58.597Z,87.13
2022-08-28T05:39:25.791Z,86.17
2022-08-28T05:41:52.962Z,85.79
2022-08-28T05:44:20.895Z,85.71
2022-08-28T05:46:48.200Z,84.67
2022-08-28T05:49:18.270Z,85.79
2022-08-28T05:51:46.398Z,84.33
2022-08-28T05:54:14.889Z,84.98
2022-08-28T05:56:43.883Z,84.86
2022-08-28T05:59:12.244Z,84.65
2022-08-28T06:01:42.567Z,84.27
2022-08-28T06:04:17.583Z,83.77
2022-08-28T06:06:45.639Z,83.34
2022-08-28T06:09:17.362Z,84.15
2022-08-28T06:11:46.145Z,83.94
2022-08-28T06:14:19.554Z,83.28
2022-08-28T06:16:53.797Z,83.63
2022-08-28T06:19:23.013Z,83.41
2022-08-28T06:21:53.934Z,83.16
2022-08-28T06:24:20.982Z,81.41
2022-08-28T06:26:48.027Z,82.74
2022-08-28T06:29:18.356Z,82.19
2022-08-28T06:31:52.826Z,81.36
2022-08-28T06:34:20.498Z,81.41
2022-08-28T06:36:53.159Z,81.57
2022-08-28T06:39:21.984Z,80.50
2022-08-28T06:41:49.274Z,80.42
2022-08-28T06:44:19.879Z,80.93
2022-08-28T06:46:52.437Z,81.00
2022-08-28T06:49:20.411Z,79.88
2022-08-28T06:51:47.696Z,80.99
2022-08-28T06:54:21.760Z,82.21
2022-08-28T06:56:52.321Z,81.24
2022-08-28T06:59:19.617Z,79.98
2022-08-28T07:01:46.706Z,78.87
2022-08-28T07:04:14.631Z,79.50
2022-08-28T07:06:46.734Z,78.63
2022-08-28T07:09:14.580Z,77.93
2022-08-28T07:11:46.588Z,77.89
2022-08-28T07:14:13.693Z,77.86
2022-08-28T07:16:41.815Z,77.64
2022-08-28T07:19:11.202Z,76.73
2022-08-28T07:21:41.588Z,76.80
2022-08-28T07:24:11.051Z,76.03
2022-08-28T07:26:41.113Z,76.10
2022-08-28T07:29:09.875Z,77.17
2022-08-28T07:31:43.909Z,77.36
2022-08-28T07:34:13.514Z,77.24
2022-08-28T07:36:41.507Z,77.55
2022-08-28T07:39:09.929Z,77.42
2022-08-28T07:41:40.090Z,76.44
2022-08-28T07:44:31.029Z,75.52
2022-08-28T07:47:01.117Z,74.49
2022-08-28T07:49:28.218Z,74.38
2022-08-28T07:51:55.374Z,74.23
2022-08-28T07:54:23.946Z,73.85
2022-08-28T07:56:52.578Z,73.90
2022-08-28T07:59:20.224Z,73.37
2022-08-28T08:01:51.435Z,73.54
2022-08-28T08:04:20.355Z,72.56
2022-08-28T08:06:48.474Z,70.94
2022-08-28T08:09:18.285Z,71.78
2022-08-28T08:11:46.669Z,71.09
2022-08-28T08:14:15.331Z,69.97
2022-08-28T08:16:44.974Z,69.94
2022-08-28T08:19:22.491Z,68.11
2022-08-28T08:21:53.117Z,67.92
2022-08-28T08:24:26.681Z,65.87
2022-08-28T08:27:00.094Z,65.22
2022-08-28T08:29:35.463Z,63.81
2022-08-28T08:32:06.418Z,64.62
2022-08-28T08:34:36.422Z,63.71
2022-08-28T08:37:05.430Z,63.78
2022-08-28T08:39:34.126Z,63.98
2022-08-28T08:42:03.897Z,62.92
2022-08-28T08:44:40.731Z,63.23
2022-08-28T08:47:38.429Z,61.90
2022-08-28T08:50:10.758Z,62.33
2022-08-28T08:52:50.362Z,62.25
2022-08-28T08:55:52.466Z,61.43
2022-08-28T08:58:31.793Z,62.04
2022-08-28T09:01:17.384Z,60.33
2022-08-28T09:03:55.322Z,61.38
2022-08-28T09:06:44.512Z,61.86
2022-08-28T09:09:18.535Z,61.87
2022-08-28T09:11:57.416Z,62.88
2022-08-28T09:14:44.596Z,61.82
2022-08-28T09:17:16.400Z,61.38
2022-08-28T09:19:43.454Z,61.58
2022-08-28T09:22:10.654Z,60.34
2022-08-28T09:24:40.211Z,62.08
2022-08-28T09:27:23.023Z,62.01
2022-08-28T09:29:59.538Z,61.84
2022-08-28T09:32:41.621Z,60.52
2022-08-28T09:35:16.316Z,61.04
2022-08-28T09:37:44.137Z,60.45
2022-08-28T09:40:20.394Z,59.82
2022-08-28T09:43:28.877Z,59.21
2022-08-28T09:46:09.741Z,58.38
2022-08-28T09:48:38.096Z,58.92
2022-08-28T09:51:10.640Z,58.00
2022-08-28T09:53:54.863Z,57.73
2022-08-28T09:56:29.738Z,58.54
2022-08-28T09:59:01.336Z,58.00
2022-08-28T10:01:46.678Z,57.59
2022-08-28T10:04:53.950Z,56.85
2022-08-28T10:07:48.640Z,57.44
2022-08-28T10:10:34.673Z,56.93
2022-08-28T10:13:20.112Z,56.62
2022-08-28T10:16:20.181Z,56.47
2022-08-28T10:19:04.216Z,55.83
2022-08-28T10:21:34.171Z,55.64
2022-08-28T10:24:26.843Z,54.80
2022-08-28T10:27:19.375Z,55.10
2022-08-28T10:30:11.281Z,54.34
2022-08-28T10:32:43.249Z,55.09
2022-08-28T10:35:17.160Z,54.91
2022-08-28T10:38:08.916Z,54.57
2022-08-28T10:40:46.702Z,53.54
2022-08-28T10:43:19.143Z,54.47
2022-08-28T10:45:49.318Z,54.66
2022-08-28T10:48:25.051Z,53.08
2022-08-28T10:51:00.691Z,52.79
2022-08-28T10:53:54.265Z,52.34
2022-08-28T10:56:25.915Z,51.29
2022-08-28T10:58:58.881Z,53.49
2022-08-28T11:01:30.332Z,52.90
2022-08-28T11:04:00.860Z,52.51
2022-08-28T11:06:42.291Z,51.97
2022-08-28T11:09:27.449Z,50.93
2022-08-28T11:12:01.818Z,50.99
2022-08-28T11:14:39.375Z,50.38
2022-08-28T11:17:33.302Z,50.08
2022-08-28T11:20:24.981Z,50.28
2022-08-28T11:23:12.467Z,50.73
2022-08-28T11:25:49.595Z,49.31
2022-08-28T11:28:39.464Z,49.54
2022-08-28T11:31:06.598Z,49.14
2022-08-28T11:33:52.806Z,49.19
2022-08-28T11:36:19.803Z,48.65
2022-08-28T11:38:56.025Z,46.97
2022-08-28T11:41:36.444Z,45.79
2022-08-28T11:44:09.459Z,45.87
2022-08-28T11:46:48.644Z,44.42
2022-08-28T11:49:27.630Z,44.66
2022-08-28T11:52:23.710Z,44.15
2022-08-28T11:55:03.688Z,42.91
2022-08-28T12:00:46.277Z,42.69
2022-08-28T12:03:34.774Z,42.28
2022-08-28T12:06:03.396Z,41.83
2022-08-28T12:08:46.776Z,41.69
2022-08-28T12:11:41.910Z,41.80
2022-08-28T12:14:27.798Z,41.81
2022-08-28T12:17:00.907Z,42.71
2022-08-28T12:19:35.494Z,42.90
2022-08-28T12:22:15.197Z,42.69
2022-08-28T12:25:06.203Z,42.46
2022-08-28T12:27:38.271Z,42.75
2022-08-28T12:30:05.929Z,41.31
2022-08-28T12:32:46.406Z,40.88
2022-08-28T12:35:18.314Z,41.32
2022-08-28T12:38:09.292Z,41.35
2022-08-28T12:40:53.325Z,40.71
2022-08-28T12:43:29.622Z,42.58
2022-08-28T12:46:04.212Z,41.28
2022-08-28T12:48:46.934Z,40.96
2022-08-28T12:51:20.863Z,39.80
2022-08-28T12:53:57.510Z,40.76
2022-08-28T12:56:26.379Z,40.89
2022-08-28T12:58:53.449Z,40.52
2022-08-28T13:01:20.516Z,39.69
2022-08-28T13:03:52.057Z,40.05
2022-08-28T13:06:26.960Z,39.30
2022-08-28T13:09:03.107Z,39.29
2022-08-28T13:11:37.748Z,39.86
2022-08-28T13:14:08.392Z,40.57
2022-08-28T13:16:44.599Z,41.31
2022-08-28T13:19:27.000Z,40.72
2022-08-28T13:22:00.438Z,41.27
2022-08-28T13:24:43.610Z,41.98
2022-08-28T13:27:17.009Z,41.67
2022-08-28T13:30:19.852Z,41.16
2022-08-28T13:33:04.456Z,41.03
2022-08-28T13:35:33.119Z,41.10
2022-08-28T13:38:04.270Z,41.92
2022-08-28T13:40:56.773Z,42.72
2022-08-28T13:43:27.493Z,42.42
2022-08-28T13:45:54.714Z,41.67
2022-08-28T13:48:25.114Z,41.27
2022-08-28T13:51:01.482Z,42.22
2022-08-28T13:53:31.830Z,41.70
2022-08-28T13:56:00.321Z,41.80
2022-08-28T13:58:28.152Z,41.88
2022-08-28T14:00:55.521Z,42.15
2022-08-28T14:03:41.284Z,41.10
2022-08-28T14:06:17.274Z,39.94
2022-08-28T14:08:46.224Z,40.23
2022-08-28T14:11:15.609Z,40.64
2022-08-28T14:13:47.238Z,40.20
2022-08-28T14:16:24.978Z,40.48
2022-08-28T14:18:52.800Z,41.64
2022-08-28T14:21:20.950Z,40.26
2022-08-28T14:23:47.990Z,40.55
2022-08-28T14:26:15.131Z,40.25
2022-08-28T14:28:42.655Z,39.88
2022-08-28T14:31:14.290Z,40.06
2022-08-28T14:33:45.377Z,41.63
2022-08-28T14:36:21.071Z,40.63
2022-08-28T14:38:50.939Z,40.66
2022-08-28T14:41:22.135Z,40.76
2022-08-28T14:43:49.606Z,41.45
2022-08-28T14:46:23.070Z,41.13
2022-08-28T14:48:50.912Z,41.55
2022-08-28T14:51:18.488Z,41.30
2022-08-28T14:53:45.579Z,41.27
2022-08-28T14:56:12.890Z,40.65
2022-08-28T14:58:40.411Z,40.45
2022-08-28T15:01:07.579Z,40.18
2022-08-28T15:03:35.115Z,40.71
2022-08-28T15:06:04.804Z,39.85
2022-08-28T15:08:32.166Z,39.94
2022-08-28T15:10:59.295Z,39.93
2022-08-28T15:13:26.353Z,39.71
2022-08-28T15:16:05.485Z,39.26
2022-08-28T15:18:43.917Z,38.22
2022-08-28T15:21:22.025Z,38.33
2022-08-28T15:23:51.127Z,38.79
2022-08-28T15:26:20.006Z,38.92
2022-08-28T15:28:47.108Z,38.19
2022-08-28T15:31:15.292Z,38.91
2022-08-28T15:33:45.367Z,37.13
2022-08-28T15:36:13.204Z,37.38
2022-08-28T15:38:59.133Z,36.48
2022-08-28T15:41:26.258Z,37.11
2022-08-28T15:44:02.149Z,36.40
2022-08-28T15:46:33.614Z,36.41
2022-08-28T15:49:07.782Z,36.29
2022-08-28T15:51:36.424Z,33.92
2022-08-28T15:54:04.886Z,34.27
2022-08-28T15:56:31.918Z,34.33
2022-08-28T15:58:58.959Z,34.71
2022-08-28T16:01:26.057Z,35.48
2022-08-28T16:03:53.330Z,35.29
2022-08-28T16:06:21.834Z,35.07
2022-08-28T16:08:49.929Z,35.66
2022-08-28T16:11:19.903Z,35.55
2022-08-28T16:13:47.074Z,34.35
2022-08-28T16:16:14.362Z,33.29
2022-08-28T16:18:42.535Z,33.61
2022-08-28T16:21:10.191Z,32.91
2022-08-28T16:23:37.857Z,31.75
2022-08-28T16:26:06.605Z,31.52
2022-08-28T16:28:34.878Z,30.34
2022-08-28T16:31:07.577Z,31.94
2022-08-28T16:33:46.539Z,33.43
2022-08-28T16:36:16.256Z,30.52
2022-08-28T16:38:46.038Z,31.27
2022-08-28T16:41:21.702Z,31.25
2022-08-28T16:43:50.024Z,30.31
2022-08-28T16:46:23.697Z,29.11
2022-08-28T16:48:52.174Z,30.55
2022-08-28T16:51:20.007Z,30.40
2022-08-28T16:53:47.431Z,29.79
2022-08-28T16:56:17.109Z,31.56
2022-08-28T16:58:44.862Z,30.55
2022-08-28T17:01:13.567Z,30.95
2022-08-28T17:03:41.739Z,30.23
2022-08-28T17:06:13.873Z,31.37
2022-08-28T17:08:41.610Z,32.09
2022-08-28T17:11:08.845Z,31.61
2022-08-28T17:13:36.655Z,31.22
2022-08-28T17:16:04.303Z,30.82
2022-08-28T17:18:31.997Z,31.07
2022-08-28T17:21:17.797Z,33.59
2022-08-28T17:23:46.458Z,37.94
2022-08-28T17:26:15.245Z,39.60
2022-08-28T17:28:43.242Z,41.25
2022-08-28T17:31:11.445Z,41.63
2022-08-28T17:33:40.901Z,42.21
2022-08-28T17:36:12.324Z,42.88
2022-08-28T17:38:48.793Z,43.32
2022-08-28T17:41:15.847Z,43.82
2022-08-28T17:43:42.948Z,44.11
2022-08-28T17:46:10.148Z,44.31
2022-08-28T17:48:38.588Z,44.23
2022-08-28T17:51:06.222Z,44.41
2022-08-28T17:53:33.529Z,45.04
2022-08-28T17:56:04.036Z,44.83
2022-08-28T17:58:35.650Z,44.39
2022-08-28T18:01:06.275Z,45.35
2022-08-28T18:03:33.643Z,45.48
2022-08-28T18:06:10.990Z,45.54
2022-08-28T18:08:39.318Z,46.16
2022-08-28T18:11:07.009Z,46.26
2022-08-28T18:13:34.035Z,46.84
2022-08-28T18:16:01.134Z,47.22
2022-08-28T18:18:36.182Z,47.26
2022-08-28T18:21:04.109Z,47.96
2022-08-28T18:23:31.197Z,48.01
2022-08-28T18:25:58.431Z,47.87
2022-08-28T18:28:26.582Z,47.93
2022-08-28T18:30:54.402Z,48.97
2022-08-28T18:33:23.631Z,48.82
2022-08-28T18:35:52.184Z,48.91
2022-08-28T18:38:21.767Z,49.31
2022-08-28T18:40:49.336Z,49.04
2022-08-28T18:43:20.081Z,49.82
2022-08-28T18:45:47.705Z,49.60
2022-08-28T18:48:15.205Z,49.28
2022-08-28T18:50:46.322Z,50.30
2022-08-28T18:53:18.197Z,50.34
2022-08-28T18:55:45.789Z,51.73
2022-08-28T18:58:15.369Z,50.84
2022-08-28T19:00:43.724Z,51.04
2022-08-28T19:03:11.107Z,50.67
2022-08-28T19:05:38.984Z,50.64
2022-08-28T19:08:06.444Z,51.35
2022-08-28T19:10:35.275Z,52.23
2022-08-28T19:13:03.898Z,51.69
2022-08-28T19:15:31.847Z,52.69
2022-08-28T19:18:02.773Z,52.85
2022-08-28T19:20:30.469Z,54.69
2022-08-28T19:22:58.508Z,55.34
2022-08-28T19:25:29.070Z,54.03
2022-08-28T19:27:59.079Z,55.42
2022-08-28T19:30:28.982Z,56.00
2022-08-28T19:32:56.141Z,56.08
2022-08-28T19:35:24.499Z,55.44
2022-08-28T19:37:55.142Z,55.06
2022-08-28T19:40:22.662Z,56.26
2022-08-28T19:42:50.315Z,55.65
2022-08-28T19:45:17.809Z,56.36
2022-08-28T19:47:46.809Z,57.40
2022-08-28T19:50:15.045Z,58.91
2022-08-28T19:52:43.231Z,59.53
2022-08-28T19:55:18.456Z,60.72
2022-08-28T19:57:46.835Z,60.76
2022-08-28T20:00:18.986Z,61.19
2022-08-28T20:02:48.007Z,62.17
2022-08-28T20:05:15.261Z,62.32
2022-08-28T20:07:43.630Z,63.15
2022-08-28T20:10:12.541Z,63.30
2022-08-28T20:12:40.152Z,62.62
2022-08-28T20:15:16.792Z,63.21
2022-08-28T20:17:49.546Z,62.38
2022-08-28T20:20:19.108Z,61.72
2022-08-28T20:22:46.306Z,62.00
2022-08-28T20:25:13.479Z,62.71
2022-08-28T20:27:41.879Z,62.10
2022-08-28T20:30:10.451Z,63.54
2022-08-28T20:32:40.133Z,62.50
2022-08-28T20:35:10.275Z,63.46
2022-08-28T20:37:44.653Z,64.30
2022-08-28T20:40:19.256Z,63.81
2022-08-28T20:42:46.638Z,64.41
2022-08-28T20:45:15.914Z,64.53
2022-08-28T20:47:43.670Z,65.50
2022-08-28T20:50:12.220Z,66.48
2022-08-28T20:52:39.567Z,65.96
2022-08-28T20:55:08.701Z,66.74
2022-08-28T20:57:36.649Z,67.28
2022-08-28T21:00:08.107Z,66.53
2022-08-28T21:02:35.560Z,66.63
2022-08-28T21:05:02.735Z,67.63
2022-08-28T21:07:30.140Z,67.13
2022-08-28T21:10:06.814Z,66.96
2022-08-28T21:12:38.670Z,67.42
2022-08-28T21:15:08.349Z,67.34
2022-08-28T21:17:35.584Z,68.11
2022-08-28T21:20:08.315Z,68.29
2022-08-28T21:22:36.143Z,68.57
2022-08-28T21:25:05.226Z,69.37
2022-08-28T21:27:32.660Z,70.41
2022-08-28T21:30:00.382Z,70.07
2022-08-28T21:32:29.217Z,70.24
2022-08-28T21:34:56.834Z,70.29
2022-08-28T21:37:24.292Z,71.18
2022-08-28T21:39:52.054Z,71.48
2022-08-28T21:42:21.113Z,71.46
2022-08-28T21:44:51.585Z,72.10
2022-08-28T21:47:23.214Z,71.60
2022-08-28T21:49:53.301Z,72.54
2022-08-28T21:52:22.098Z,72.09
2022-08-28T21:54:49.195Z,73.19
2022-08-28T21:57:17.583Z,73.54
2022-08-28T21:59:44.711Z,74.21
2022-08-28T22:02:11.783Z,74.10
2022-08-28T22:04:38.931Z,73.47
2022-08-28T22:07:06.502Z,74.26
2022-08-28T22:09:33.533Z,74.99
2022-08-28T22:12:01.289Z,74.76
2022-08-28T22:14:28.480Z,74.16
2022-08-28T22:16:56.595Z,74.87
2022-08-28T22:19:23.793Z,74.92
2022-08-28T22:22:09.594Z,75.23
2022-08-28T22:24:37.491Z,74.84
2022-08-28T22:27:05.754Z,75.95
2022-08-28T22:29:36.418Z,76.73
2022-08-28T22:32:07.857Z,77.17
2022-08-28T22:34:40.603Z,76.77
2022-08-28T22:37:08.085Z,77.14
2022-08-28T22:39:35.112Z,78.36
2022-08-28T22:42:02.350Z,77.97
2022-08-28T22:44:29.509Z,77.51
2022-08-28T22:46:56.526Z,77.84
2022-08-28T22:49:23.661Z,77.17
2022-08-28T22:51:50.665Z,78.34
2022-08-28T22:54:17.859Z,77.39
2022-08-28T22:56:44.958Z,77.69
2022-08-28T22:59:12.052Z,77.96
2022-08-28T23:01:42.225Z,78.61
2022-08-28T23:04:10.868Z,79.10
2022-08-28T23:06:40.173Z,79.60
2022-08-28T23:09:08.207Z,80.19
2022-08-28T23:11:36.475Z,79.92
2022-08-28T23:14:05.422Z,79.72
2022-08-28T23:16:32.879Z,80.85
2022-08-28T23:19:13.273Z,80.99
2022-08-28T23:21:44.106Z,81.25
2022-08-28T23:24:16.053Z,81.04
2022-08-28T23:26:44.772Z,81.57
2022-08-28T23:29:12.417Z,82.23
2022-08-28T23:31:39.756Z,82.25
2022-08-28T23:34:07.031Z,81.74
2022-08-28T23:36:35.830Z,82.04
2022-08-28T23:39:04.882Z,82.29
2022-08-28T23:41:33.180Z,81.46
2022-08-28T23:44:02.409Z,81.90
2022-08-28T23:46:31.331Z,82.17
2022-08-28T23:48:58.480Z,83.00
2022-08-28T23:51:25.568Z,83.34
2022-08-28T23:53:53.445Z,83.84
2022-08-28T23:56:20.509Z,83.37
2022-08-28T23:58:47.537Z,83.71
